Flight Track Log - Related Links

Times and Time Zones

All times are in EDT time to prevent confusion due to time zone crossing. See the GGN7280 flight status page for this flight to view local times or setup timezone preferences in your user account.

Time Position Orientation Groundspeed Altitude Reporting Facility
EDT Latitude Longitude Course Direction KTS MPH feet Rate Location/Type
Mon 04:59:50 PM 43.6500 -79.6167 65° Northeast 10 12 500  Level Toronto Center
Mon 05:00:50 PM 43.6667 -79.5667 65° Northeast 140 161 1,400 1,200 Climbing Toronto Center
Mon 05:01:50 PM 43.6667 -79.5167 90° East 170 196 2,900 1,400 Climbing Toronto Center
Mon 05:02:50 PM 43.6333 -79.4500 125° Southeast 190 219 4,200 1,400 Climbing Toronto Center
Mon 05:03:50 PM 43.6167 -79.3833 109° East 190 219 5,700 900 Climbing Toronto Center
Mon 05:04:50 PM 43.5833 -79.3167 125° Southeast 210 242 6,000 650 Climbing Toronto Center
Mon 05:05:50 PM 43.5500 -79.2500 125° Southeast 230 265 7,000 950 Climbing Toronto Center
Mon 05:06:50 PM 43.5167 -79.1500 115° Southeast 220 253 7,900 1,050 Climbing Toronto Center
Mon 05:07:50 PM 43.5000 -79.0833 109° East 220 253 9,100 1,200 Climbing Toronto Center
Mon 05:08:50 PM 43.4667 -79.0167 125° Southeast 220 253 10,300 950 Climbing Toronto Center
Mon 05:09:50 PM 43.4333 -78.9500 125° Southeast 220 253 11,000 233 Climbing Toronto Center
Mon 05:11:50 PM 43.3500 -78.7667 122° Southeast 250 288 11,000  Level Toronto Center
Mon 05:12:13 PM 43.3528 -78.7761 292° West 240 276 11,000  Level Cleveland Center
Mon 05:13:13 PM 43.3222 -78.6914 116° Southeast 240 276 11,000 -50 Level Cleveland Center
Mon 05:14:13 PM 43.3039 -78.5978 105° East 240 276 10,900 -59 Descending Cleveland Center
Mon 05:14:54 PM 43.2881 -78.5242 106° East 253 291 10,900  Level Cleveland Center
Mon 05:15:13 PM 43.2856 -78.5014 99° East 250 288 10,900 122 Level Cleveland Center
Mon 05:15:43 PM 43.2742 -78.4503 107° East 254 292 11,000 100 Climbing Cleveland Center
Mon 05:16:13 PM 43.2672 -78.4078 103° East 250 288 11,000  Level Cleveland Center
Mon 05:16:43 PM 43.2558 -78.3600 108° East 253 291 11,000  Level Cleveland Center
Mon 05:17:13 PM 43.2486 -78.3144 102° East 250 288 11,000 -98 Level Cleveland Center
Mon 05:17:44 PM 43.2353 -78.2636 110° East 254 292 10,900  Descending Cleveland Center
Mon 05:18:13 PM 43.2303 -78.2211 99° East 250 288 11,000  Climbing Cleveland Center
Mon 05:18:45 PM 43.2167 -78.1733 111° Southeast 254 292 10,900 -800 Descending Cleveland Center
Mon 05:19:13 PM 43.2094 -78.1308 103° East 250 288 10,200 -2,000 Descending Cleveland Center
Mon 05:19:45 PM 43.1958 -78.0744 108° East 254 292 8,900 -1,900 Descending Cleveland Center
Mon 05:20:13 PM 43.1867 -78.0406 110° East 250 288 8,300 -1,869 Descending Cleveland Center
Mon 05:20:46 PM 43.1689 -77.9844 113° Southeast 253 291 7,000 -1,900 Descending Cleveland Center
Mon 05:21:13 PM 43.1597 -77.9506 110° East 250 288 6,400 -1,770 Descending Cleveland Center
Mon 05:21:47 PM 43.1419 -77.8972 115° Southeast 242 278 5,200 -1,800 Descending Cleveland Center
Mon 05:22:13 PM 43.1369 -77.8661 102° East 244 281 4,600 -2,000 Descending Cleveland Center
Mon 05:22:47 PM 43.1253 -77.8156 108° East 228 262 3,200 -1,900 Descending Cleveland Center
Mon 05:23:13 PM 43.1203 -77.7844 102° East 239 275 2,700 -1,279 Descending Cleveland Center
Mon 05:23:48 PM 43.1194 -77.7447 92° East 156 180 1,900 -1,300 Descending Cleveland Center
Mon 05:24:13 PM 43.1211 -77.7247 83° East 197 227 1,400 -1,100 Descending Cleveland Center
Mon 05:24:48 PM 43.1203 -77.6961 92° East 118 136 800 -1,029 Descending Cleveland Center
Mon 05:26:00 PM 43.1167 -77.6667 109° East  Level FlightAware Approximate
Mon 05:33:00 PM 43.1191 -77.6719 109° East  Level Estimated

Login

Don't have an account? Register now (free) for customized features, flight alerts, and more!